Millsap, Texas
Current Conditions -  °F | °C
As of 12:53 AM on Thursday 23 Oct 2014 (Local Time) from KMWL Reporting Station
Overcast Overcast  
Wind Chill: 66°   Ceiling: 8000
Heat Index: 66°   Visibility: 7mi
Dew Point: 59°   Wind: 7mph
Humidity: 78%   Direction: 140°SE
Pressure: 30.08"   Gusts: NA
Location:  32.75°N, 98.01°W
Report Text: KMWL 230553Z AUTO 14006KT 7SM OVC080 19/15 A3008 RMK AO2 SLP176 60000 T01890150 10233 20189 402670122 58003
Loading
Personal Weather Stations






























Interactive Weather Map
Tropical Storm Tracking
New forecast layout! Learn more

10-Day Weather Forecast

Advertisements
Track Severe Weather on mobile